Dart — OUOV2 — position and weather

sailwx.info

Track history (hours):
 
Tides and Currents Weather Stations Pressure Air Temp Water Temp Dewpoint Dewpoint Depression Visibility Wind Speed Wind Dir Waves Ship Positions

Dart

Last reported at 2017-Apr-26 21:00 UTC. Time now 2017-Apr-26 21:19 UTC.
Position N 59°50' E 005°33'.

Length 66 m; draft 3.8 m.

Type: Tanker. MMSI: 219416000.

Date/timePositionNaut miles runAvg speedWind from/ knotsBaromVisibWave heightAir tempDewpointWater temp
2017-Apr-26 21:00N 59°50' E 005°33'5 9.5
2017-Apr-26 20:30N 59°45' E 005°31'5 9.9
2017-Apr-26 20:00N 59°41' E 005°24'5 9.8
2017-Apr-26 19:30N 59°37' E 005°18'5 9.4
2017-Apr-26 19:01N 59°34' E 005°14'5 9.4
2017-Apr-26 18:30N 59°29' E 005°13'5 9.9
2017-Apr-26 18:00N 59°24' E 005°16'0 0.6
2017-Apr-26 17:29N 59°24' E 005°16'0 0.0
2017-Apr-26 16:59N 59°24' E 005°16'0 0.0
2017-Apr-26 16:29N 59°24' E 005°16'0 0.1
2017-Apr-26 16:00N 59°24' E 005°16'5 9.3
2017-Apr-26 15:30N 59°19' E 005°20'4 9.3
2017-Apr-26 15:01N 59°15' E 005°21'4 8.9
2017-Apr-26 14:31N 59°10' E 005°22'9 8.8
2017-Apr-26 13:31N 59°04' E 005°34'5 9.4
2017-Apr-26 13:01N 59°01' E 005°40'1 1.5
2017-Apr-26 12:28N 58°60' E 005°40'0 0.0
2017-Apr-26 11:58N 58°60' E 005°40'0 0.0
2017-Apr-26 11:28N 58°60' E 005°40'0 0.0
2017-Apr-26 10:58N 58°60' E 005°40'0 0.0
2017-Apr-26 10:28N 58°60' E 005°40'0 0.0
2017-Apr-26 09:58N 58°60' E 005°40'0 0.0
2017-Apr-26 09:28N 58°60' E 005°40'0 0.0
2017-Apr-26 08:58N 58°60' E 005°40'0 0.0
2017-Apr-26 08:28N 58°60' E 005°40'0 0.0
2017-Apr-26 07:58N 58°60' E 005°40'0 0.0
2017-Apr-26 07:28N 58°60' E 005°40'0 0.0
2017-Apr-26 06:58N 58°60' E 005°40'0 0.0
2017-Apr-26 06:28N 58°60' E 005°40'0 0.0
2017-Apr-26 05:58N 58°60' E 005°40'0 0.0
2017-Apr-26 05:28N 58°60' E 005°40'0 0.0
2017-Apr-26 04:58N 58°60' E 005°40'0 0.0
2017-Apr-26 04:28N 58°60' E 005°40'0 0.0
2017-Apr-26 03:58N 58°60' E 005°40'0 0.0
2017-Apr-26 03:28N 58°60' E 005°40'0 0.0
2017-Apr-26 02:58N 58°60' E 005°40'0 0.0
2017-Apr-26 02:28N 58°60' E 005°40'0 0.1
2017-Apr-26 01:58N 58°60' E 005°40'0 0.0
2017-Apr-26 01:28N 58°60' E 005°40'0 0.0
2017-Apr-26 00:58N 58°60' E 005°40'0 0.0
2017-Apr-26 00:31N 58°60' E 005°40'2 4.0
2017-Apr-26 00:01N 59°02' E 005°42'0 0.3
2017-Apr-25 23:30N 59°01' E 005°42'0 0.2
2017-Apr-25 23:00N 59°01' E 005°42'1 2.7
2017-Apr-25 22:31N 59°01' E 005°40'2 4.4
2017-Apr-25 22:00N 59°02' E 005°37'4 7.2
2017-Apr-25 21:30N 59°05' E 005°32'5 9.5
2017-Apr-25 21:00N 59°08' E 005°25'4 8.5
2017-Apr-25 20:30N 59°11' E 005°20'5 9.9
2017-Apr-25 20:00N 59°16' E 005°20'3 4.9
2017-Apr-25 19:29N 59°19' E 005°19'0 0.0
2017-Apr-25 18:59N 59°19' E 005°19'0 0.0
2017-Apr-25 18:29N 59°19' E 005°19'0 0.0
2017-Apr-25 17:59N 59°19' E 005°19'0 0.0
2017-Apr-25 17:29N 59°19' E 005°19'0 0.0
2017-Apr-25 16:59N 59°19' E 005°19'0 0.0
2017-Apr-25 16:29N 59°19' E 005°19'0 0.0
2017-Apr-25 15:59N 59°19' E 005°19'0 0.0
2017-Apr-25 15:29N 59°19' E 005°19'0 0.0
2017-Apr-25 15:00N 59°19' E 005°19'6 6.5
2017-Apr-25 14:00N 59°25' E 005°14'0 0.0
2017-Apr-25 13:30N 59°25' E 005°14'0 0.0
2017-Apr-25 13:00N 59°25' E 005°14'0 0.0
2017-Apr-25 12:30N 59°25' E 005°14'0 0.0
2017-Apr-25 12:00N 59°25' E 005°14'0 0.0
2017-Apr-25 11:30N 59°25' E 005°14'0 0.0
2017-Apr-25 11:00N 59°25' E 005°14'0 0.0
2017-Apr-25 10:30N 59°25' E 005°14'0 0.0
2017-Apr-25 10:00N 59°25' E 005°14'0 0.0
2017-Apr-25 09:30N 59°25' E 005°14'0 0.0
2017-Apr-25 09:00N 59°25' E 005°14'0 0.0
2017-Apr-25 08:30N 59°25' E 005°14'0 0.0
2017-Apr-25 08:00N 59°25' E 005°14'0 0.0
2017-Apr-25 07:30N 59°25' E 005°14'0 0.0
2017-Apr-25 07:00N 59°25' E 005°14'0 0.0
2017-Apr-25 06:30N 59°25' E 005°14'0 0.0
2017-Apr-25 06:00N 59°25' E 005°14'0 0.0
2017-Apr-25 05:30N 59°25' E 005°14'0 0.0
2017-Apr-25 05:00N 59°25' E 005°14'3 6.2
2017-Apr-25 04:30N 59°22' E 005°18'5 9.7
2017-Apr-25 04:00N 59°18' E 005°20'1 1.2
2017-Apr-25 03:30N 59°17' E 005°19'0 0.0
2017-Apr-25 03:00N 59°17' E 005°19'0 0.0
2017-Apr-25 02:30N 59°17' E 005°19'0 0.0
2017-Apr-25 02:00N 59°17' E 005°19'0 0.0
2017-Apr-25 01:30N 59°17' E 005°19'0 0.0
2017-Apr-25 01:00N 59°17' E 005°19'0 0.0
2017-Apr-25 00:30N 59°17' E 005°19'0 0.0
2017-Apr-25 00:00N 59°17' E 005°19'0 0.0
2017-Apr-24 23:30N 59°17' E 005°19'0 0.0
2017-Apr-24 23:00N 59°17' E 005°19'0 0.0
2017-Apr-24 22:30N 59°17' E 005°19'0 0.0
2017-Apr-24 22:00N 59°17' E 005°19'0 0.0
2017-Apr-24 21:30N 59°17' E 005°19'0 0.0
2017-Apr-24 21:00N 59°17' E 005°19'0 0.0
2017-Apr-24 20:30N 59°17' E 005°19'0 0.0
2017-Apr-24 20:00N 59°17' E 005°19'0 0.0
2017-Apr-24 19:30N 59°17' E 005°19'0 0.0
2017-Apr-24 19:00N 59°17' E 005°19'0 0.0
2017-Apr-24 18:30N 59°17' E 005°19'0 0.0
2017-Apr-24 18:00N 59°17' E 005°19'0 0.0
2017-Apr-24 17:30N 59°17' E 005°19'0 0.0
2017-Apr-24 17:00N 59°17' E 005°19'0 0.0
2017-Apr-24 16:30N 59°17' E 005°19'0 0.0
2017-Apr-24 16:00N 59°17' E 005°19'0 0.0
2017-Apr-24 15:30N 59°17' E 005°19'0 0.0
2017-Apr-24 15:00N 59°17' E 005°19'0 0.0
2017-Apr-24 14:30N 59°17' E 005°19'0 0.0
2017-Apr-24 13:30N 59°17' E 005°19'0 0.0
2017-Apr-24 13:00N 59°17' E 005°19'1 1.1
2017-Apr-24 12:30N 59°17' E 005°20'3 6.4
2017-Apr-24 12:00N 59°15' E 005°25'4 8.2
2017-Apr-24 11:30N 59°11' E 005°29'4 8.0
2017-Apr-24 11:00N 59°08' E 005°31'4 7.5
2017-Apr-24 10:30N 59°04' E 005°32'4 7.2
2017-Apr-24 10:01N 59°00' E 005°33'3 6.2
2017-Apr-24 09:30N 58°57' E 005°33'2 4.4
2017-Apr-24 09:00N 58°55' E 005°36'0 0.0
2017-Apr-24 08:29N 58°55' E 005°36'0 0.0
2017-Apr-24 07:59N 58°55' E 005°36'0 0.0
2017-Apr-24 07:29N 58°55' E 005°36'0 0.0
2017-Apr-24 06:59N 58°55' E 005°36'0 0.0
2017-Apr-24 06:29N 58°55' E 005°36'0 0.0
2017-Apr-24 05:59N 58°55' E 005°36'0 0.0
2017-Apr-24 05:29N 58°55' E 005°36'0 0.0
2017-Apr-24 04:59N 58°55' E 005°36'0 0.0
2017-Apr-24 04:29N 58°55' E 005°36'0 0.0
2017-Apr-24 03:59N 58°55' E 005°36'0 0.0
2017-Apr-24 03:29N 58°55' E 005°36'0 0.0
2017-Apr-24 02:59N 58°55' E 005°36'0 0.0
2017-Apr-24 02:29N 58°55' E 005°36'0 0.0
2017-Apr-24 01:59N 58°55' E 005°36'0 0.0
2017-Apr-24 01:29N 58°55' E 005°36'0 0.0
2017-Apr-24 00:59N 58°55' E 005°36'0 0.0
2017-Apr-24 00:29N 58°55' E 005°36'0 0.0
2017-Apr-24 00:00N 58°55' E 005°36'0 0.0
2017-Apr-23 23:30N 58°55' E 005°36'3 6.4
2017-Apr-23 23:00N 58°58' E 005°33'4 8.4
2017-Apr-23 22:30N 59°02' E 005°35'5 9.3
2017-Apr-23 22:00N 59°02' E 005°44'4 8.4
2017-Apr-23 21:30N 58°58' E 005°48'5 9.9
2017-Apr-23 21:00N 58°53' E 005°45'0 0.0
2017-Apr-23 20:28N 58°53' E 005°45'0 0.0
2017-Apr-23 19:58N 58°53' E 005°45'0 0.0
2017-Apr-23 19:28N 58°53' E 005°45'0 0.0
2017-Apr-23 18:58N 58°53' E 005°45'0 0.0
2017-Apr-23 18:28N 58°53' E 005°45'0 0.0
2017-Apr-23 17:58N 58°53' E 005°45'0 0.0
2017-Apr-23 17:28N 58°53' E 005°45'0 0.0
2017-Apr-23 16:58N 58°53' E 005°45'0 0.0
2017-Apr-23 16:28N 58°53' E 005°45'0 0.0
2017-Apr-23 15:58N 58°53' E 005°45'0 0.0
2017-Apr-23 15:28N 58°53' E 005°45'0 0.0
2017-Apr-23 14:58N 58°53' E 005°45'0 0.0
2017-Apr-23 13:58N 58°53' E 005°45'0 0.0
2017-Apr-23 13:28N 58°53' E 005°45'0 0.0
2017-Apr-23 12:58N 58°53' E 005°45'0 0.0
2017-Apr-23 12:28N 58°53' E 005°45'0 0.0
2017-Apr-23 11:58N 58°53' E 005°45'0 0.0
2017-Apr-23 11:28N 58°53' E 005°45'0 0.0
2017-Apr-23 10:58N 58°53' E 005°45'0 0.0
2017-Apr-23 10:28N 58°53' E 005°45'0 0.0
2017-Apr-23 09:58N 58°53' E 005°45'0 0.0
2017-Apr-23 09:28N 58°53' E 005°45'0 0.0
2017-Apr-23 08:58N 58°53' E 005°45'0 0.0
2017-Apr-23 08:28N 58°53' E 005°45'0 0.0
2017-Apr-23 07:58N 58°53' E 005°45'0 0.0
2017-Apr-23 07:28N 58°53' E 005°45'0 0.0
2017-Apr-23 06:58N 58°53' E 005°45'0 0.0
2017-Apr-23 06:28N 58°53' E 005°45'0 0.0
2017-Apr-23 05:58N 58°53' E 005°45'0 0.0
2017-Apr-23 05:28N 58°53' E 005°45'1 2.2
2017-Apr-23 05:00N 58°54' E 005°46'510.1
2017-Apr-23 04:30N 58°59' E 005°48'4 7.0
2017-Apr-23 04:00N 59°02' E 005°43'4 8.2
2017-Apr-23 03:30N 59°03' E 005°35'5 9.8
2017-Apr-23 03:00N 59°06' E 005°29'4 8.9
2017-Apr-23 02:30N 59°09' E 005°22'5 9.2
2017-Apr-23 02:00N 59°13' E 005°20'5 9.8
2017-Apr-23 01:30N 59°18' E 005°20'5 9.4
2017-Apr-23 01:00N 59°23' E 005°18'5 9.2
2017-Apr-23 00:30N 59°27' E 005°13'510.1
2017-Apr-23 00:00N 59°32' E 005°12'510.6
2017-Apr-22 23:31N 59°37' E 005°17'510.8
2017-Apr-22 23:00N 59°41' E 005°24'510.6
2017-Apr-22 22:30N 59°45' E 005°30'5 9.7
2017-Apr-22 22:00N 59°50' E 005°33'510.4
2017-Apr-22 21:31N 59°55' E 005°31'510.4
2017-Apr-22 21:00N 59°58' E 005°23'510.2
2017-Apr-22 20:30N 60°03' E 005°19'510.3
2017-Apr-22 20:00N 60°08' E 005°17'5 9.9
2017-Apr-22 19:30N 60°12' E 005°11'510.2
2017-Apr-22 19:00N 60°17' E 005°09'5 9.7
2017-Apr-22 18:30N 60°22' E 005°10'5 9.5
2017-Apr-22 18:01N 60°25' E 005°03'510.1
2017-Apr-22 17:31N 60°30' E 004°58'510.3
2017-Apr-22 17:01N 60°34' E 004°55'510.3
2017-Apr-22 16:30N 60°39' E 004°51'5 9.9
2017-Apr-22 16:00N 60°44' E 004°47'5 9.7
2017-Apr-22 15:30N 60°49' E 004°44'4 9.0
2017-Apr-22 15:00N 60°53' E 004°46'5 9.3
2017-Apr-22 14:30N 60°58' E 004°45'10 9.6
2017-Apr-22 13:30N 61°05' E 004°60'5 9.4
2017-Apr-22 13:01N 61°09' E 005°01'5 9.1
2017-Apr-22 12:30N 61°13' E 004°57'4 7.9
2017-Apr-22 12:00N 61°17' E 004°57'4 8.4
2017-Apr-22 11:30N 61°20' E 005°03'5 9.9
2017-Apr-22 11:00N 61°24' E 004°59'5 9.3
2017-Apr-22 10:30N 61°29' E 004°59'5 9.4
2017-Apr-22 10:00N 61°34' E 004°59'4 8.7
2017-Apr-22 09:30N 61°38' E 004°59'5 9.9
2017-Apr-22 09:00N 61°43' E 004°58'5 9.7
2017-Apr-22 08:30N 61°47' E 005°04'5 9.7
2017-Apr-22 08:00N 61°49' E 005°12'3 6.1
2017-Apr-22 07:30N 61°52' E 005°13'4 8.2
2017-Apr-22 07:00N 61°56' E 005°07'5 9.6
2017-Apr-22 06:30N 62°00' E 005°09'4 8.8
2017-Apr-22 06:00N 62°05' E 005°07'4 8.4
2017-Apr-22 05:30N 62°09' E 005°04'4 7.9
2017-Apr-22 05:00N 62°13' E 005°06'4 8.4
2017-Apr-22 04:30N 62°15' E 005°14'4 8.0
2017-Apr-22 04:00N 62°17' E 005°21'4 7.8
2017-Apr-22 03:30N 62°17' E 005°30'5 9.3
2017-Apr-22 03:01N 62°19' E 005°39'4 7.7
2017-Apr-22 02:31N 62°21' E 005°45'5 9.1
2017-Apr-22 02:00N 62°25' E 005°51'4 8.0
2017-Apr-22 01:30N 62°27' E 005°59'5 9.7
2017-Apr-22 01:00N 62°29' E 006°07'5 9.7
2017-Apr-22 00:30N 62°34' E 006°11'4 8.7
2017-Apr-22 00:00N 62°37' E 006°18'5 9.2
2017-Apr-21 23:30N 62°38' E 006°28'4 8.9
2017-Apr-21 23:01N 62°39' E 006°37'4 8.9
2017-Apr-21 22:31N 62°40' E 006°46'5 9.0
2017-Apr-21 22:00N 62°42' E 006°56'5 9.7
2017-Apr-21 21:29N 62°47' E 006°57'4 8.7
2017-Apr-21 21:00N 62°50' E 007°03'2 4.2
2017-Apr-21 20:29N 62°51' E 007°07'0 0.0
2017-Apr-21 19:59N 62°51' E 007°07'0 0.0
2017-Apr-21 19:29N 62°51' E 007°07'0 0.0
2017-Apr-21 18:59N 62°51' E 007°07'0 0.0
2017-Apr-21 18:29N 62°51' E 007°07'0 0.0
2017-Apr-21 17:59N 62°51' E 007°07'0 0.0
2017-Apr-21 17:29N 62°51' E 007°07'0 0.0
2017-Apr-21 16:59N 62°51' E 007°07'0 0.0
2017-Apr-21 16:29N 62°51' E 007°07'0 0.0
2017-Apr-21 15:59N 62°51' E 007°07'0 0.0
2017-Apr-21 15:29N 62°51' E 007°07'0 0.7
2017-Apr-21 15:00N 62°51' E 007°08'0 0.3
2017-Apr-21 14:30N 62°51' E 007°08'0 0.0
2017-Apr-21 13:30N 62°51' E 007°08'0 0.0
2017-Apr-21 13:00N 62°51' E 007°08'0 0.0
2017-Apr-21 12:27N 62°51' E 007°08'0 0.0
2017-Apr-21 12:00N 62°51' E 007°08'0 0.0
2017-Apr-21 11:30N 62°51' E 007°08'0 0.0
2017-Apr-21 11:00N 62°51' E 007°08'0 0.0
2017-Apr-21 10:30N 62°51' E 007°08'0 0.0
2017-Apr-21 09:57N 62°51' E 007°08'0 0.0
2017-Apr-21 09:30N 62°51' E 007°08'0 0.0
2017-Apr-21 09:00N 62°51' E 007°08'0 0.0
2017-Apr-21 08:30N 62°51' E 007°08'0 0.0
2017-Apr-21 07:57N 62°51' E 007°08'0 0.0
2017-Apr-21 07:30N 62°51' E 007°08'0 0.0
2017-Apr-21 06:57N 62°51' E 007°08'0 0.0
2017-Apr-21 06:30N 62°51' E 007°08'0 0.0
2017-Apr-21 06:00N 62°51' E 007°08'0 0.0
2017-Apr-21 05:30N 62°51' E 007°08'0 0.0
2017-Apr-21 05:00N 62°51' E 007°08'0 0.0
2017-Apr-21 04:30N 62°51' E 007°08'0 0.0
2017-Apr-21 04:00N 62°51' E 007°08'0 0.0
2017-Apr-21 03:30N 62°51' E 007°08'0 0.0
2017-Apr-21 03:00N 62°51' E 007°08'0 0.0
2017-Apr-21 02:30N 62°51' E 007°08'0 0.0
2017-Apr-21 02:00N 62°51' E 007°08'0 0.0
2017-Apr-21 01:30N 62°51' E 007°08'0 0.0
2017-Apr-21 00:57N 62°51' E 007°08'0 0.0
2017-Apr-21 00:30N 62°51' E 007°08'0 0.0
2017-Apr-21 00:00N 62°51' E 007°08'0 0.0
2017-Apr-20 23:30N 62°51' E 007°08'0 0.0
2017-Apr-20 23:00N 62°51' E 007°08'1 1.4
2017-Apr-20 22:30N 62°51' E 007°07'510.4
2017-Apr-20 22:00N 62°48' E 006°58'510.5
2017-Apr-20 21:30N 62°42' E 006°57'611.6
2017-Apr-20 21:01N 62°40' E 006°46'612.3
2017-Apr-20 20:30N 62°38' E 006°33'611.8
2017-Apr-20 20:00N 62°37' E 006°20'611.2
2017-Apr-20 19:30N 62°34' E 006°11'510.5
2017-Apr-20 19:00N 62°29' E 006°06'511.0
2017-Apr-20 18:30N 62°26' E 005°56'510.6
2017-Apr-20 18:01N 62°22' E 005°48'5 9.5
2017-Apr-20 17:30N 62°19' E 005°41'611.0
2017-Apr-20 17:00N 62°17' E 005°30'511.0
2017-Apr-20 16:30N 62°16' E 005°18'510.8
2017-Apr-20 16:00N 62°13' E 005°09'5 9.3
2017-Apr-20 15:30N 62°09' E 005°04'510.0
2017-Apr-20 15:00N 62°04' E 005°08'10 9.9
2017-Apr-20 14:00N 61°54' E 005°09'5 9.4
2017-Apr-20 13:29N 61°51' E 005°16'510.5
2017-Apr-20 13:00N 61°48' E 005°07'611.1
2017-Apr-20 12:30N 61°44' E 004°58'510.6
2017-Apr-20 12:00N 61°39' E 004°59'5 9.9
2017-Apr-20 11:30N 61°34' E 004°59'510.2
2017-Apr-20 11:00N 61°29' E 004°59'510.2
2017-Apr-20 10:30N 61°24' E 004°60'510.3
2017-Apr-20 10:00N 61°19' E 005°04'5 9.8
2017-Apr-20 09:30N 61°16' E 004°55'5 9.8
2017-Apr-20 09:00N 61°12' E 005°00'510.4
2017-Apr-20 08:30N 61°07' E 005°02'5 9.6
2017-Apr-20 08:00N 61°03' E 004°57'611.4
2017-Apr-20 07:30N 60°59' E 004°47'510.8
2017-Apr-20 07:00N 60°54' E 004°46'510.7
2017-Apr-20 06:30N 60°49' E 004°45'612.0
2017-Apr-20 06:00N 60°43' E 004°49'611.7
2017-Apr-20 05:30N 60°38' E 004°53'611.6
2017-Apr-20 05:00N 60°32' E 004°57'611.6
2017-Apr-20 04:30N 60°27' E 005°02'510.9
2017-Apr-20 04:01N 60°23' E 005°10'610.7
2017-Apr-20 03:29N 60°18' E 005°12'510.3
2017-Apr-20 03:00N 60°13' E 005°11'510.8
2017-Apr-20 02:30N 60°08' E 005°17'610.9
2017-Apr-20 01:59N 60°03' E 005°20'511.1
2017-Apr-20 01:30N 59°58' E 005°24'611.5
2017-Apr-20 01:00N 59°54' E 005°32'611.3
2017-Apr-20 00:30N 59°48' E 005°33'510.7
2017-Apr-20 00:00N 59°44' E 005°28'611.4
2017-Apr-19 23:29N 59°39' E 005°20'511.2
2017-Apr-19 23:00N 59°35' E 005°15'510.4
2017-Apr-19 22:30N 59°29' E 005°13'5 9.4
2017-Apr-19 22:00N 59°25' E 005°14'0 0.0
2017-Apr-19 21:28N 59°25' E 005°14'0 0.0
2017-Apr-19 20:58N 59°25' E 005°14'0 0.0
2017-Apr-19 20:28N 59°25' E 005°14'0 0.0
2017-Apr-19 19:58N 59°25' E 005°14'0 0.0
2017-Apr-19 19:28N 59°25' E 005°14'0 0.0
2017-Apr-19 18:58N 59°25' E 005°14'0 0.0
2017-Apr-19 18:28N 59°25' E 005°14'0 0.0
2017-Apr-19 17:58N 59°25' E 005°14'0 0.0
2017-Apr-19 17:28N 59°25' E 005°14'0 0.0
2017-Apr-19 16:58N 59°25' E 005°14'0 0.0
2017-Apr-19 16:28N 59°25' E 005°14'0 0.0
2017-Apr-19 15:58N 59°25' E 005°14'0 0.0
2017-Apr-19 15:28N 59°25' E 005°14'0 0.0
2017-Apr-19 14:58N 59°25' E 005°14'0 0.0
2017-Apr-19 14:28N 59°25' E 005°14'0 0.2
2017-Apr-19 13:28N 59°25' E 005°14'0 0.0
2017-Apr-19 12:58N 59°25' E 005°14'0 0.0
2017-Apr-19 12:28N 59°25' E 005°14'0 0.0
2017-Apr-19 11:58N 59°25' E 005°14'0 0.0
2017-Apr-19 11:28N 59°25' E 005°14'0 0.0
2017-Apr-19 10:58N 59°25' E 005°14'0 0.0
2017-Apr-19 10:28N 59°25' E 005°14'2 3.5
2017-Apr-19 10:00N 59°26' E 005°14'5 9.1
2017-Apr-19 09:29N 59°31' E 005°12'4 8.7
2017-Apr-19 09:00N 59°35' E 005°15'5 9.6
2017-Apr-19 08:30N 59°39' E 005°20'5 9.1
2017-Apr-19 08:00N 59°43' E 005°24'5 9.3
2017-Apr-19 07:30N 59°47' E 005°20'5 9.2
2017-Apr-19 07:00N 59°51' E 005°15'5 9.3
2017-Apr-19 06:30N 59°56' E 005°11'4 8.8
2017-Apr-19 06:00N 59°60' E 005°14'5 9.1
2017-Apr-19 05:30N 60°04' E 005°10'5 9.9
2017-Apr-19 05:00N 60°09' E 005°11'5 9.5
2017-Apr-19 04:30N 60°13' E 005°10'4 8.8
2017-Apr-19 04:00N 60°18' E 005°12'5 9.7
2017-Apr-19 03:30N 60°23' E 005°10'4 9.1
2017-Apr-19 03:00N 60°25' E 005°03'4 8.9
2017-Apr-19 02:30N 60°29' E 004°59'4 8.6
2017-Apr-19 02:00N 60°33' E 004°55'4 8.6
2017-Apr-19 01:30N 60°37' E 004°52'4 8.8
2017-Apr-19 01:00N 60°42' E 004°49'4 8.7
2017-Apr-19 00:30N 60°46' E 004°46'4 8.4
2017-Apr-19 00:00N 60°50' E 004°44'5 9.6
2017-Apr-18 23:30N 60°51' E 004°53'510.4
2017-Apr-18 23:00N 60°49' E 005°04'2 3.4
2017-Apr-18 22:28N 60°47' E 005°04'0 0.0
2017-Apr-18 21:58N 60°47' E 005°04'0 0.0
2017-Apr-18 21:28N 60°47' E 005°04'0 0.0
2017-Apr-18 20:58N 60°47' E 005°04'0 0.0
2017-Apr-18 20:28N 60°47' E 005°04'0 0.8
2017-Apr-18 20:00N 60°48' E 005°05'5 9.2
2017-Apr-18 19:30N 60°51' E 004°57'5 9.9
2017-Apr-18 19:00N 60°53' E 004°48'5 9.4
2017-Apr-18 18:29N 60°57' E 004°46'5 9.6
2017-Apr-18 18:00N 61°01' E 004°51'510.1
2017-Apr-18 17:30N 61°04' E 004°59'5 9.4
2017-Apr-18 17:00N 61°09' E 005°01'4 9.0
2017-Apr-18 16:30N 61°13' E 004°57'4 8.1
2017-Apr-18 16:00N 61°17' E 004°56'4 8.7
2017-Apr-18 15:30N 61°20' E 005°03'510.1
2017-Apr-18 15:00N 61°24' E 004°59'510.0
2017-Apr-18 14:30N 61°29' E 004°59'9 9.1
2017-Apr-18 13:30N 61°38' E 004°59'5 9.7
2017-Apr-18 13:00N 61°43' E 004°58'510.0
2017-Apr-18 12:30N 61°47' E 005°04'510.1
2017-Apr-18 12:00N 61°50' E 005°14'3 6.4
2017-Apr-18 11:30N 61°53' E 005°11'4 8.1
2017-Apr-18 11:00N 61°56' E 005°08'5 9.1
2017-Apr-18 10:30N 62°01' E 005°09'510.0
2017-Apr-18 10:00N 62°05' E 005°06'5 9.8
2017-Apr-18 09:30N 62°10' E 005°04'5 9.1
2017-Apr-18 09:00N 62°14' E 005°11'5 9.8
2017-Apr-18 08:30N 62°16' E 005°19'5 9.9
2017-Apr-18 08:00N 62°17' E 005°30'510.0
2017-Apr-18 07:30N 62°19' E 005°40'4 8.2
2017-Apr-18 07:00N 62°22' E 005°46'5 9.5
2017-Apr-18 06:30N 62°25' E 005°53'510.3
2017-Apr-18 06:00N 62°28' E 006°03'5 9.5
2017-Apr-18 05:30N 62°31' E 006°09'5 9.8
2017-Apr-18 05:00N 62°35' E 006°15'510.3
2017-Apr-18 04:30N 62°39' E 006°23'5 9.8
2017-Apr-18 04:00N 62°43' E 006°29'5 9.8
2017-Apr-18 03:30N 62°47' E 006°35'5 9.8
2017-Apr-18 03:00N 62°51' E 006°41'5 9.7
2017-Apr-18 02:30N 62°55' E 006°47'5 9.2
2017-Apr-18 02:00N 62°59' E 006°53'5 9.7
2017-Apr-18 01:30N 63°00' E 007°03'5 9.8
2017-Apr-18 01:00N 63°02' E 007°13'5 9.6
2017-Apr-18 00:30N 63°04' E 007°23'5 9.8
2017-Apr-18 00:00N 63°06' E 007°33'4 7.6
2017-Apr-17 23:30N 63°06' E 007°41'3 5.4
2017-Apr-17 22:58N 63°03' E 007°40'0 0.0
2017-Apr-17 22:28N 63°03' E 007°40'0 0.0
2017-Apr-17 21:58N 63°03' E 007°40'0 0.7
2017-Apr-17 21:30N 63°04' E 007°41'3 6.1
2017-Apr-17 21:00N 63°06' E 007°44'3 5.0
2017-Apr-17 20:30N 63°09' E 007°42'3 5.7
2017-Apr-17 20:00N 63°11' E 007°47'3 6.3
2017-Apr-17 19:30N 63°12' E 007°53'3 6.3
2017-Apr-17 19:00N 63°14' E 007°59'4 7.0
2017-Apr-17 18:30N 63°16' E 008°06'4 7.4
2017-Apr-17 18:00N 63°18' E 008°13'4 7.5
2017-Apr-17 17:30N 63°20' E 008°19'5 9.7
2017-Apr-17 17:00N 63°23' E 008°28'510.4
2017-Apr-17 16:30N 63°25' E 008°39'510.2
2017-Apr-17 16:00N 63°27' E 008°49'510.7
2017-Apr-17 15:30N 63°29' E 009°00'510.5
2017-Apr-17 15:00N 63°32' E 009°11'1010.4
2017-Apr-17 14:00N 63°38' E 009°29'510.0
2017-Apr-17 13:30N 63°43' E 009°32'510.4
2017-Apr-17 13:00N 63°48' E 009°34'510.1
2017-Apr-17 12:30N 63°52' E 009°42'5 9.8
2017-Apr-17 12:00N 63°56' E 009°48'510.2
2017-Apr-17 11:30N 63°60' E 009°56'5 9.5
2017-Apr-17 11:00N 64°03' E 010°03'4 8.2
2017-Apr-17 10:29N 64°07' E 010°03'5 9.7
2017-Apr-17 10:00N 64°11' E 010°09'510.0
2017-Apr-17 09:30N 64°15' E 010°18'5 9.0
2017-Apr-17 09:00N 64°19' E 010°23'4 8.9
2017-Apr-17 08:30N 64°23' E 010°27'5 9.2
2017-Apr-17 08:00N 64°27' E 010°28'5 9.8
2017-Apr-17 07:30N 64°31' E 010°35'5 9.9
2017-Apr-17 07:00N 64°35' E 010°40'510.1
2017-Apr-17 06:30N 64°40' E 010°47'510.2
2017-Apr-17 05:59N 64°43' E 010°55'5 9.9
2017-Apr-17 05:30N 64°47' E 011°03'510.4
2017-Apr-17 05:00N 64°50' E 011°12'510.3
2017-Apr-17 04:30N 64°54' E 011°21'510.1
2017-Apr-17 04:00N 64°57' E 011°30'510.0
2017-Apr-17 03:30N 65°01' E 011°39'5 9.8
2017-Apr-17 03:00N 65°04' E 011°46'5 9.9
2017-Apr-17 02:30N 65°09' E 011°50'5 9.6
2017-Apr-17 02:00N 65°13' E 011°54'5 9.8
2017-Apr-17 01:30N 65°18' E 011°59'4 8.3
2017-Apr-17 01:00N 65°22' E 012°01'5 9.1
2017-Apr-17 00:30N 65°26' E 011°56'5 9.6
2017-Apr-17 00:00N 65°31' E 011°60'5 9.9
2017-Apr-16 23:30N 65°34' E 012°07'5 9.6
2017-Apr-16 23:00N 65°39' E 012°12'5 9.8
2017-Apr-16 22:29N 65°43' E 012°16'510.5
2017-Apr-16 22:00N 65°48' E 012°20'5 9.8
2017-Apr-16 21:30N 65°53' E 012°22'  
Track history (hours):
 
Tides and Currents Weather Stations Pressure Air Temp Water Temp Dewpoint Dewpoint Depression Visibility Wind Speed Wind Dir Waves Ship Positions

Dart

Last reported at 2017-Apr-26 21:00 UTC. Time now 2017-Apr-26 21:19 UTC.
Position N 59°50' E 005°33'.

Length 66 m; draft 3.8 m.

Type: Tanker. MMSI: 219416000.

Date/timePositionNaut miles runAvg speedWind from/ knotsBaromVisibWave heightAir tempDewpointWater temp
2017-Apr-26 21:00N 59°50' E 005°33'5 9.5
2017-Apr-26 20:30N 59°45' E 005°31'5 9.9
2017-Apr-26 20:00N 59°41' E 005°24'5 9.8
2017-Apr-26 19:30N 59°37' E 005°18'5 9.4
2017-Apr-26 19:01N 59°34' E 005°14'5 9.4
2017-Apr-26 18:30N 59°29' E 005°13'5 9.9
2017-Apr-26 18:00N 59°24' E 005°16'0 0.6
2017-Apr-26 17:29N 59°24' E 005°16'0 0.0
2017-Apr-26 16:59N 59°24' E 005°16'0 0.0
2017-Apr-26 16:29N 59°24' E 005°16'0 0.1
2017-Apr-26 16:00N 59°24' E 005°16'5 9.3
2017-Apr-26 15:30N 59°19' E 005°20'4 9.3
2017-Apr-26 15:01N 59°15' E 005°21'4 8.9
2017-Apr-26 14:31N 59°10' E 005°22'9 8.8
2017-Apr-26 13:31N 59°04' E 005°34'5 9.4
2017-Apr-26 13:01N 59°01' E 005°40'1 1.5
2017-Apr-26 12:28N 58°60' E 005°40'0 0.0
2017-Apr-26 11:58N 58°60' E 005°40'0 0.0
2017-Apr-26 11:28N 58°60' E 005°40'0 0.0
2017-Apr-26 10:58N 58°60' E 005°40'0 0.0
2017-Apr-26 10:28N 58°60' E 005°40'0 0.0
2017-Apr-26 09:58N 58°60' E 005°40'0 0.0
2017-Apr-26 09:28N 58°60' E 005°40'0 0.0
2017-Apr-26 08:58N 58°60' E 005°40'0 0.0
2017-Apr-26 08:28N 58°60' E 005°40'0 0.0
2017-Apr-26 07:58N 58°60' E 005°40'0 0.0
2017-Apr-26 07:28N 58°60' E 005°40'0 0.0
2017-Apr-26 06:58N 58°60' E 005°40'0 0.0
2017-Apr-26 06:28N 58°60' E 005°40'0 0.0
2017-Apr-26 05:58N 58°60' E 005°40'0 0.0
2017-Apr-26 05:28N 58°60' E 005°40'0 0.0
2017-Apr-26 04:58N 58°60' E 005°40'0 0.0
2017-Apr-26 04:28N 58°60' E 005°40'0 0.0
2017-Apr-26 03:58N 58°60' E 005°40'0 0.0
2017-Apr-26 03:28N 58°60' E 005°40'0 0.0
2017-Apr-26 02:58N 58°60' E 005°40'0 0.0
2017-Apr-26 02:28N 58°60' E 005°40'0 0.1
2017-Apr-26 01:58N 58°60' E 005°40'0 0.0
2017-Apr-26 01:28N 58°60' E 005°40'0 0.0
2017-Apr-26 00:58N 58°60' E 005°40'0 0.0
2017-Apr-26 00:31N 58°60' E 005°40'2 4.0
2017-Apr-26 00:01N 59°02' E 005°42'0 0.3
2017-Apr-25 23:30N 59°01' E 005°42'0 0.2
2017-Apr-25 23:00N 59°01' E 005°42'1 2.7
2017-Apr-25 22:31N 59°01' E 005°40'2 4.4
2017-Apr-25 22:00N 59°02' E 005°37'4 7.2
2017-Apr-25 21:30N 59°05' E 005°32'5 9.5
2017-Apr-25 21:00N 59°08' E 005°25'4 8.5
2017-Apr-25 20:30N 59°11' E 005°20'5 9.9
2017-Apr-25 20:00N 59°16' E 005°20'3 4.9
2017-Apr-25 19:29N 59°19' E 005°19'0 0.0
2017-Apr-25 18:59N 59°19' E 005°19'0 0.0
2017-Apr-25 18:29N 59°19' E 005°19'0 0.0
2017-Apr-25 17:59N 59°19' E 005°19'0 0.0
2017-Apr-25 17:29N 59°19' E 005°19'0 0.0
2017-Apr-25 16:59N 59°19' E 005°19'0 0.0
2017-Apr-25 16:29N 59°19' E 005°19'0 0.0
2017-Apr-25 15:59N 59°19' E 005°19'0 0.0
2017-Apr-25 15:29N 59°19' E 005°19'0 0.0
2017-Apr-25 15:00N 59°19' E 005°19'6 6.5
2017-Apr-25 14:00N 59°25' E 005°14'0 0.0
2017-Apr-25 13:30N 59°25' E 005°14'0 0.0
2017-Apr-25 13:00N 59°25' E 005°14'0 0.0
2017-Apr-25 12:30N 59°25' E 005°14'0 0.0
2017-Apr-25 12:00N 59°25' E 005°14'0 0.0
2017-Apr-25 11:30N 59°25' E 005°14'0 0.0
2017-Apr-25 11:00N 59°25' E 005°14'0 0.0
2017-Apr-25 10:30N 59°25' E 005°14'0 0.0
2017-Apr-25 10:00N 59°25' E 005°14'0 0.0
2017-Apr-25 09:30N 59°25' E 005°14'0 0.0
2017-Apr-25 09:00N 59°25' E 005°14'0 0.0
2017-Apr-25 08:30N 59°25' E 005°14'0 0.0
2017-Apr-25 08:00N 59°25' E 005°14'0 0.0
2017-Apr-25 07:30N 59°25' E 005°14'0 0.0
2017-Apr-25 07:00N 59°25' E 005°14'0 0.0
2017-Apr-25 06:30N 59°25' E 005°14'0 0.0
2017-Apr-25 06:00N 59°25' E 005°14'0 0.0
2017-Apr-25 05:30N 59°25' E 005°14'0 0.0
2017-Apr-25 05:00N 59°25' E 005°14'3 6.2
2017-Apr-25 04:30N 59°22' E 005°18'5 9.7
2017-Apr-25 04:00N 59°18' E 005°20'1 1.2
2017-Apr-25 03:30N 59°17' E 005°19'0 0.0
2017-Apr-25 03:00N 59°17' E 005°19'0 0.0
2017-Apr-25 02:30N 59°17' E 005°19'0 0.0
2017-Apr-25 02:00N 59°17' E 005°19'0 0.0
2017-Apr-25 01:30N 59°17' E 005°19'0 0.0
2017-Apr-25 01:00N 59°17' E 005°19'0 0.0
2017-Apr-25 00:30N 59°17' E 005°19'0 0.0
2017-Apr-25 00:00N 59°17' E 005°19'0 0.0
2017-Apr-24 23:30N 59°17' E 005°19'0 0.0
2017-Apr-24 23:00N 59°17' E 005°19'0 0.0
2017-Apr-24 22:30N 59°17' E 005°19'0 0.0
2017-Apr-24 22:00N 59°17' E 005°19'0 0.0
2017-Apr-24 21:30N 59°17' E 005°19'0 0.0
2017-Apr-24 21:00N 59°17' E 005°19'0 0.0
2017-Apr-24 20:30N 59°17' E 005°19'0 0.0
2017-Apr-24 20:00N 59°17' E 005°19'0 0.0
2017-Apr-24 19:30N 59°17' E 005°19'0 0.0
2017-Apr-24 19:00N 59°17' E 005°19'0 0.0
2017-Apr-24 18:30N 59°17' E 005°19'0 0.0
2017-Apr-24 18:00N 59°17' E 005°19'0 0.0
2017-Apr-24 17:30N 59°17' E 005°19'0 0.0
2017-Apr-24 17:00N 59°17' E 005°19'0 0.0
2017-Apr-24 16:30N 59°17' E 005°19'0 0.0
2017-Apr-24 16:00N 59°17' E 005°19'0 0.0
2017-Apr-24 15:30N 59°17' E 005°19'0 0.0
2017-Apr-24 15:00N 59°17' E 005°19'0 0.0
2017-Apr-24 14:30N 59°17' E 005°19'0 0.0
2017-Apr-24 13:30N 59°17' E 005°19'0 0.0
2017-Apr-24 13:00N 59°17' E 005°19'1 1.1
2017-Apr-24 12:30N 59°17' E 005°20'3 6.4
2017-Apr-24 12:00N 59°15' E 005°25'4 8.2
2017-Apr-24 11:30N 59°11' E 005°29'4 8.0
2017-Apr-24 11:00N 59°08' E 005°31'4 7.5
2017-Apr-24 10:30N 59°04' E 005°32'4 7.2
2017-Apr-24 10:01N 59°00' E 005°33'3 6.2
2017-Apr-24 09:30N 58°57' E 005°33'2 4.4
2017-Apr-24 09:00N 58°55' E 005°36'0 0.0
2017-Apr-24 08:29N 58°55' E 005°36'0 0.0
2017-Apr-24 07:59N 58°55' E 005°36'0 0.0
2017-Apr-24 07:29N 58°55' E 005°36'0 0.0
2017-Apr-24 06:59N 58°55' E 005°36'0 0.0
2017-Apr-24 06:29N 58°55' E 005°36'0 0.0
2017-Apr-24 05:59N 58°55' E 005°36'0 0.0
2017-Apr-24 05:29N 58°55' E 005°36'0 0.0
2017-Apr-24 04:59N 58°55' E 005°36'0 0.0
2017-Apr-24 04:29N 58°55' E 005°36'0 0.0
2017-Apr-24 03:59N 58°55' E 005°36'0 0.0
2017-Apr-24 03:29N 58°55' E 005°36'0 0.0
2017-Apr-24 02:59N 58°55' E 005°36'0 0.0
2017-Apr-24 02:29N 58°55' E 005°36'0 0.0
2017-Apr-24 01:59N 58°55' E 005°36'0 0.0
2017-Apr-24 01:29N 58°55' E 005°36'0 0.0
2017-Apr-24 00:59N 58°55' E 005°36'0 0.0
2017-Apr-24 00:29N 58°55' E 005°36'0 0.0
2017-Apr-24 00:00N 58°55' E 005°36'0 0.0
2017-Apr-23 23:30N 58°55' E 005°36'3 6.4
2017-Apr-23 23:00N 58°58' E 005°33'4 8.4
2017-Apr-23 22:30N 59°02' E 005°35'5 9.3
2017-Apr-23 22:00N 59°02' E 005°44'4 8.4
2017-Apr-23 21:30N 58°58' E 005°48'5 9.9
2017-Apr-23 21:00N 58°53' E 005°45'0 0.0
2017-Apr-23 20:28N 58°53' E 005°45'0 0.0
2017-Apr-23 19:58N 58°53' E 005°45'0 0.0
2017-Apr-23 19:28N 58°53' E 005°45'0 0.0
2017-Apr-23 18:58N 58°53' E 005°45'0 0.0
2017-Apr-23 18:28N 58°53' E 005°45'0 0.0
2017-Apr-23 17:58N 58°53' E 005°45'0 0.0
2017-Apr-23 17:28N 58°53' E 005°45'0 0.0
2017-Apr-23 16:58N 58°53' E 005°45'0 0.0
2017-Apr-23 16:28N 58°53' E 005°45'0 0.0
2017-Apr-23 15:58N 58°53' E 005°45'0 0.0
2017-Apr-23 15:28N 58°53' E 005°45'0 0.0
2017-Apr-23 14:58N 58°53' E 005°45'0 0.0
2017-Apr-23 13:58N 58°53' E 005°45'0 0.0
2017-Apr-23 13:28N 58°53' E 005°45'0 0.0
2017-Apr-23 12:58N 58°53' E 005°45'0 0.0
2017-Apr-23 12:28N 58°53' E 005°45'0 0.0
2017-Apr-23 11:58N 58°53' E 005°45'0 0.0
2017-Apr-23 11:28N 58°53' E 005°45'0 0.0
2017-Apr-23 10:58N 58°53' E 005°45'0 0.0
2017-Apr-23 10:28N 58°53' E 005°45'0 0.0
2017-Apr-23 09:58N 58°53' E 005°45'0 0.0
2017-Apr-23 09:28N 58°53' E 005°45'0 0.0
2017-Apr-23 08:58N 58°53' E 005°45'0 0.0
2017-Apr-23 08:28N 58°53' E 005°45'0 0.0
2017-Apr-23 07:58N 58°53' E 005°45'0 0.0
2017-Apr-23 07:28N 58°53' E 005°45'0 0.0
2017-Apr-23 06:58N 58°53' E 005°45'0 0.0
2017-Apr-23 06:28N 58°53' E 005°45'0 0.0
2017-Apr-23 05:58N 58°53' E 005°45'0 0.0
2017-Apr-23 05:28N 58°53' E 005°45'1 2.2
2017-Apr-23 05:00N 58°54' E 005°46'510.1
2017-Apr-23 04:30N 58°59' E 005°48'4 7.0
2017-Apr-23 04:00N 59°02' E 005°43'4 8.2
2017-Apr-23 03:30N 59°03' E 005°35'5 9.8
2017-Apr-23 03:00N 59°06' E 005°29'4 8.9
2017-Apr-23 02:30N 59°09' E 005°22'5 9.2
2017-Apr-23 02:00N 59°13' E 005°20'5 9.8
2017-Apr-23 01:30N 59°18' E 005°20'5 9.4
2017-Apr-23 01:00N 59°23' E 005°18'5 9.2
2017-Apr-23 00:30N 59°27' E 005°13'510.1
2017-Apr-23 00:00N 59°32' E 005°12'510.6
2017-Apr-22 23:31N 59°37' E 005°17'510.8
2017-Apr-22 23:00N 59°41' E 005°24'510.6
2017-Apr-22 22:30N 59°45' E 005°30'5 9.7
2017-Apr-22 22:00N 59°50' E 005°33'510.4
2017-Apr-22 21:31N 59°55' E 005°31'510.4
2017-Apr-22 21:00N 59°58' E 005°23'510.2
2017-Apr-22 20:30N 60°03' E 005°19'510.3
2017-Apr-22 20:00N 60°08' E 005°17'5 9.9
2017-Apr-22 19:30N 60°12' E 005°11'510.2
2017-Apr-22 19:00N 60°17' E 005°09'5 9.7
2017-Apr-22 18:30N 60°22' E 005°10'5 9.5
2017-Apr-22 18:01N 60°25' E 005°03'510.1
2017-Apr-22 17:31N 60°30' E 004°58'510.3
2017-Apr-22 17:01N 60°34' E 004°55'510.3
2017-Apr-22 16:30N 60°39' E 004°51'5 9.9
2017-Apr-22 16:00N 60°44' E 004°47'5 9.7
2017-Apr-22 15:30N 60°49' E 004°44'4 9.0
2017-Apr-22 15:00N 60°53' E 004°46'5 9.3
2017-Apr-22 14:30N 60°58' E 004°45'10 9.6
2017-Apr-22 13:30N 61°05' E 004°60'5 9.4
2017-Apr-22 13:01N 61°09' E 005°01'5 9.1
2017-Apr-22 12:30N 61°13' E 004°57'4 7.9
2017-Apr-22 12:00N 61°17' E 004°57'4 8.4
2017-Apr-22 11:30N 61°20' E 005°03'5 9.9
2017-Apr-22 11:00N 61°24' E 004°59'5 9.3
2017-Apr-22 10:30N 61°29' E 004°59'5 9.4
2017-Apr-22 10:00N 61°34' E 004°59'4 8.7
2017-Apr-22 09:30N 61°38' E 004°59'5 9.9
2017-Apr-22 09:00N 61°43' E 004°58'5 9.7
2017-Apr-22 08:30N 61°47' E 005°04'5 9.7
2017-Apr-22 08:00N 61°49' E 005°12'3 6.1
2017-Apr-22 07:30N 61°52' E 005°13'4 8.2
2017-Apr-22 07:00N 61°56' E 005°07'5 9.6
2017-Apr-22 06:30N 62°00' E 005°09'4 8.8
2017-Apr-22 06:00N 62°05' E 005°07'4 8.4
2017-Apr-22 05:30N 62°09' E 005°04'4 7.9
2017-Apr-22 05:00N 62°13' E 005°06'4 8.4
2017-Apr-22 04:30N 62°15' E 005°14'4 8.0
2017-Apr-22 04:00N 62°17' E 005°21'4 7.8
2017-Apr-22 03:30N 62°17' E 005°30'5 9.3
2017-Apr-22 03:01N 62°19' E 005°39'4 7.7
2017-Apr-22 02:31N 62°21' E 005°45'5 9.1
2017-Apr-22 02:00N 62°25' E 005°51'4 8.0
2017-Apr-22 01:30N 62°27' E 005°59'5 9.7
2017-Apr-22 01:00N 62°29' E 006°07'5 9.7
2017-Apr-22 00:30N 62°34' E 006°11'4 8.7
2017-Apr-22 00:00N 62°37' E 006°18'5 9.2
2017-Apr-21 23:30N 62°38' E 006°28'4 8.9
2017-Apr-21 23:01N 62°39' E 006°37'4 8.9
2017-Apr-21 22:31N 62°40' E 006°46'5 9.0
2017-Apr-21 22:00N 62°42' E 006°56'5 9.7
2017-Apr-21 21:29N 62°47' E 006°57'4 8.7
2017-Apr-21 21:00N 62°50' E 007°03'2 4.2
2017-Apr-21 20:29N 62°51' E 007°07'0 0.0
2017-Apr-21 19:59N 62°51' E 007°07'0 0.0
2017-Apr-21 19:29N 62°51' E 007°07'0 0.0
2017-Apr-21 18:59N 62°51' E 007°07'0 0.0
2017-Apr-21 18:29N 62°51' E 007°07'0 0.0
2017-Apr-21 17:59N 62°51' E 007°07'0 0.0
2017-Apr-21 17:29N 62°51' E 007°07'0 0.0
2017-Apr-21 16:59N 62°51' E 007°07'0 0.0
2017-Apr-21 16:29N 62°51' E 007°07'0 0.0
2017-Apr-21 15:59N 62°51' E 007°07'0 0.0
2017-Apr-21 15:29N 62°51' E 007°07'0 0.7
2017-Apr-21 15:00N 62°51' E 007°08'0 0.3
2017-Apr-21 14:30N 62°51' E 007°08'0 0.0
2017-Apr-21 13:30N 62°51' E 007°08'0 0.0
2017-Apr-21 13:00N 62°51' E 007°08'0 0.0
2017-Apr-21 12:27N 62°51' E 007°08'0 0.0
2017-Apr-21 12:00N 62°51' E 007°08'0 0.0
2017-Apr-21 11:30N 62°51' E 007°08'0 0.0
2017-Apr-21 11:00N 62°51' E 007°08'0 0.0
2017-Apr-21 10:30N 62°51' E 007°08'0 0.0
2017-Apr-21 09:57N 62°51' E 007°08'0 0.0
2017-Apr-21 09:30N 62°51' E 007°08'0 0.0
2017-Apr-21 09:00N 62°51' E 007°08'0 0.0
2017-Apr-21 08:30N 62°51' E 007°08'0 0.0
2017-Apr-21 07:57N 62°51' E 007°08'0 0.0
2017-Apr-21 07:30N 62°51' E 007°08'0 0.0
2017-Apr-21 06:57N 62°51' E 007°08'0 0.0
2017-Apr-21 06:30N 62°51' E 007°08'0 0.0
2017-Apr-21 06:00N 62°51' E 007°08'0 0.0
2017-Apr-21 05:30N 62°51' E 007°08'0 0.0
2017-Apr-21 05:00N 62°51' E 007°08'0 0.0
2017-Apr-21 04:30N 62°51' E 007°08'0 0.0
2017-Apr-21 04:00N 62°51' E 007°08'0 0.0
2017-Apr-21 03:30N 62°51' E 007°08'0 0.0
2017-Apr-21 03:00N 62°51' E 007°08'0 0.0
2017-Apr-21 02:30N 62°51' E 007°08'0 0.0
2017-Apr-21 02:00N 62°51' E 007°08'0 0.0
2017-Apr-21 01:30N 62°51' E 007°08'0 0.0
2017-Apr-21 00:57N 62°51' E 007°08'0 0.0
2017-Apr-21 00:30N 62°51' E 007°08'0 0.0
2017-Apr-21 00:00N 62°51' E 007°08'0 0.0
2017-Apr-20 23:30N 62°51' E 007°08'0 0.0
2017-Apr-20 23:00N 62°51' E 007°08'1 1.4
2017-Apr-20 22:30N 62°51' E 007°07'510.4
2017-Apr-20 22:00N 62°48' E 006°58'510.5
2017-Apr-20 21:30N 62°42' E 006°57'611.6
2017-Apr-20 21:01N 62°40' E 006°46'612.3
2017-Apr-20 20:30N 62°38' E 006°33'611.8
2017-Apr-20 20:00N 62°37' E 006°20'611.2
2017-Apr-20 19:30N 62°34' E 006°11'510.5
2017-Apr-20 19:00N 62°29' E 006°06'511.0
2017-Apr-20 18:30N 62°26' E 005°56'510.6
2017-Apr-20 18:01N 62°22' E 005°48'5 9.5
2017-Apr-20 17:30N 62°19' E 005°41'611.0
2017-Apr-20 17:00N 62°17' E 005°30'511.0
2017-Apr-20 16:30N 62°16' E 005°18'510.8
2017-Apr-20 16:00N 62°13' E 005°09'5 9.3
2017-Apr-20 15:30N 62°09' E 005°04'510.0
2017-Apr-20 15:00N 62°04' E 005°08'10 9.9
2017-Apr-20 14:00N 61°54' E 005°09'5 9.4
2017-Apr-20 13:29N 61°51' E 005°16'510.5
2017-Apr-20 13:00N 61°48' E 005°07'611.1
2017-Apr-20 12:30N 61°44' E 004°58'510.6
2017-Apr-20 12:00N 61°39' E 004°59'5 9.9
2017-Apr-20 11:30N 61°34' E 004°59'510.2
2017-Apr-20 11:00N 61°29' E 004°59'510.2
2017-Apr-20 10:30N 61°24' E 004°60'510.3
2017-Apr-20 10:00N 61°19' E 005°04'5 9.8
2017-Apr-20 09:30N 61°16' E 004°55'5 9.8
2017-Apr-20 09:00N 61°12' E 005°00'510.4
2017-Apr-20 08:30N 61°07' E 005°02'5 9.6
2017-Apr-20 08:00N 61°03' E 004°57'611.4
2017-Apr-20 07:30N 60°59' E 004°47'510.8
2017-Apr-20 07:00N 60°54' E 004°46'510.7
2017-Apr-20 06:30N 60°49' E 004°45'612.0
2017-Apr-20 06:00N 60°43' E 004°49'611.7
2017-Apr-20 05:30N 60°38' E 004°53'611.6
2017-Apr-20 05:00N 60°32' E 004°57'611.6
2017-Apr-20 04:30N 60°27' E 005°02'510.9
2017-Apr-20 04:01N 60°23' E 005°10'610.7
2017-Apr-20 03:29N 60°18' E 005°12'510.3
2017-Apr-20 03:00N 60°13' E 005°11'510.8
2017-Apr-20 02:30N 60°08' E 005°17'610.9
2017-Apr-20 01:59N 60°03' E 005°20'511.1
2017-Apr-20 01:30N 59°58' E 005°24'611.5
2017-Apr-20 01:00N 59°54' E 005°32'611.3
2017-Apr-20 00:30N 59°48' E 005°33'510.7
2017-Apr-20 00:00N 59°44' E 005°28'611.4
2017-Apr-19 23:29N 59°39' E 005°20'511.2
2017-Apr-19 23:00N 59°35' E 005°15'510.4
2017-Apr-19 22:30N 59°29' E 005°13'5 9.4
2017-Apr-19 22:00N 59°25' E 005°14'0 0.0
2017-Apr-19 21:28N 59°25' E 005°14'0 0.0
2017-Apr-19 20:58N 59°25' E 005°14'0 0.0
2017-Apr-19 20:28N 59°25' E 005°14'0 0.0
2017-Apr-19 19:58N 59°25' E 005°14'0 0.0
2017-Apr-19 19:28N 59°25' E 005°14'0 0.0
2017-Apr-19 18:58N 59°25' E 005°14'0 0.0
2017-Apr-19 18:28N 59°25' E 005°14'0 0.0
2017-Apr-19 17:58N 59°25' E 005°14'0 0.0
2017-Apr-19 17:28N 59°25' E 005°14'0 0.0
2017-Apr-19 16:58N 59°25' E 005°14'0 0.0
2017-Apr-19 16:28N 59°25' E 005°14'0 0.0
2017-Apr-19 15:58N 59°25' E 005°14'0 0.0
2017-Apr-19 15:28N 59°25' E 005°14'0 0.0
2017-Apr-19 14:58N 59°25' E 005°14'0 0.0
2017-Apr-19 14:28N 59°25' E 005°14'0 0.2
2017-Apr-19 13:28N 59°25' E 005°14'0 0.0
2017-Apr-19 12:58N 59°25' E 005°14'0 0.0
2017-Apr-19 12:28N 59°25' E 005°14'0 0.0
2017-Apr-19 11:58N 59°25' E 005°14'0 0.0
2017-Apr-19 11:28N 59°25' E 005°14'0 0.0
2017-Apr-19 10:58N 59°25' E 005°14'0 0.0
2017-Apr-19 10:28N 59°25' E 005°14'2 3.5
2017-Apr-19 10:00N 59°26' E 005°14'5 9.1
2017-Apr-19 09:29N 59°31' E 005°12'4 8.7
2017-Apr-19 09:00N 59°35' E 005°15'5 9.6
2017-Apr-19 08:30N 59°39' E 005°20'5 9.1
2017-Apr-19 08:00N 59°43' E 005°24'5 9.3
2017-Apr-19 07:30N 59°47' E 005°20'5 9.2
2017-Apr-19 07:00N 59°51' E 005°15'5 9.3
2017-Apr-19 06:30N 59°56' E 005°11'4 8.8
2017-Apr-19 06:00N 59°60' E 005°14'5 9.1
2017-Apr-19 05:30N 60°04' E 005°10'5 9.9
2017-Apr-19 05:00N 60°09' E 005°11'5 9.5
2017-Apr-19 04:30N 60°13' E 005°10'4 8.8
2017-Apr-19 04:00N 60°18' E 005°12'5 9.7
2017-Apr-19 03:30N 60°23' E 005°10'4 9.1
2017-Apr-19 03:00N 60°25' E 005°03'4 8.9
2017-Apr-19 02:30N 60°29' E 004°59'4 8.6
2017-Apr-19 02:00N 60°33' E 004°55'4 8.6
2017-Apr-19 01:30N 60°37' E 004°52'4 8.8
2017-Apr-19 01:00N 60°42' E 004°49'4 8.7
2017-Apr-19 00:30N 60°46' E 004°46'4 8.4
2017-Apr-19 00:00N 60°50' E 004°44'5 9.6
2017-Apr-18 23:30N 60°51' E 004°53'510.4
2017-Apr-18 23:00N 60°49' E 005°04'2 3.4
2017-Apr-18 22:28N 60°47' E 005°04'0 0.0
2017-Apr-18 21:58N 60°47' E 005°04'0 0.0
2017-Apr-18 21:28N 60°47' E 005°04'0 0.0
2017-Apr-18 20:58N 60°47' E 005°04'0 0.0
2017-Apr-18 20:28N 60°47' E 005°04'0 0.8
2017-Apr-18 20:00N 60°48' E 005°05'5 9.2
2017-Apr-18 19:30N 60°51' E 004°57'5 9.9
2017-Apr-18 19:00N 60°53' E 004°48'5 9.4
2017-Apr-18 18:29N 60°57' E 004°46'5 9.6
2017-Apr-18 18:00N 61°01' E 004°51'510.1
2017-Apr-18 17:30N 61°04' E 004°59'5 9.4
2017-Apr-18 17:00N 61°09' E 005°01'4 9.0
2017-Apr-18 16:30N 61°13' E 004°57'4 8.1
2017-Apr-18 16:00N 61°17' E 004°56'4 8.7
2017-Apr-18 15:30N 61°20' E 005°03'510.1
2017-Apr-18 15:00N 61°24' E 004°59'510.0
2017-Apr-18 14:30N 61°29' E 004°59'9 9.1
2017-Apr-18 13:30N 61°38' E 004°59'5 9.7
2017-Apr-18 13:00N 61°43' E 004°58'510.0
2017-Apr-18 12:30N 61°47' E 005°04'510.1
2017-Apr-18 12:00N 61°50' E 005°14'3 6.4
2017-Apr-18 11:30N 61°53' E 005°11'4 8.1
2017-Apr-18 11:00N 61°56' E 005°08'5 9.1
2017-Apr-18 10:30N 62°01' E 005°09'510.0
2017-Apr-18 10:00N 62°05' E 005°06'5 9.8
2017-Apr-18 09:30N 62°10' E 005°04'5 9.1
2017-Apr-18 09:00N 62°14' E 005°11'5 9.8
2017-Apr-18 08:30N 62°16' E 005°19'5 9.9
2017-Apr-18 08:00N 62°17' E 005°30'510.0
2017-Apr-18 07:30N 62°19' E 005°40'4 8.2
2017-Apr-18 07:00N 62°22' E 005°46'5 9.5
2017-Apr-18 06:30N 62°25' E 005°53'510.3
2017-Apr-18 06:00N 62°28' E 006°03'5 9.5
2017-Apr-18 05:30N 62°31' E 006°09'5 9.8
2017-Apr-18 05:00N 62°35' E 006°15'510.3
2017-Apr-18 04:30N 62°39' E 006°23'5 9.8
2017-Apr-18 04:00N 62°43' E 006°29'5 9.8
2017-Apr-18 03:30N 62°47' E 006°35'5 9.8
2017-Apr-18 03:00N 62°51' E 006°41'5 9.7
2017-Apr-18 02:30N 62°55' E 006°47'5 9.2
2017-Apr-18 02:00N 62°59' E 006°53'5 9.7
2017-Apr-18 01:30N 63°00' E 007°03'5 9.8
2017-Apr-18 01:00N 63°02' E 007°13'5 9.6
2017-Apr-18 00:30N 63°04' E 007°23'5 9.8
2017-Apr-18 00:00N 63°06' E 007°33'4 7.6
2017-Apr-17 23:30N 63°06' E 007°41'3 5.4
2017-Apr-17 22:58N 63°03' E 007°40'0 0.0
2017-Apr-17 22:28N 63°03' E 007°40'0 0.0
2017-Apr-17 21:58N 63°03' E 007°40'0 0.7
2017-Apr-17 21:30N 63°04' E 007°41'3 6.1
2017-Apr-17 21:00N 63°06' E 007°44'3 5.0
2017-Apr-17 20:30N 63°09' E 007°42'3 5.7
2017-Apr-17 20:00N 63°11' E 007°47'3 6.3
2017-Apr-17 19:30N 63°12' E 007°53'3 6.3
2017-Apr-17 19:00N 63°14' E 007°59'4 7.0
2017-Apr-17 18:30N 63°16' E 008°06'4 7.4
2017-Apr-17 18:00N 63°18' E 008°13'4 7.5
2017-Apr-17 17:30N 63°20' E 008°19'5 9.7
2017-Apr-17 17:00N 63°23' E 008°28'510.4
2017-Apr-17 16:30N 63°25' E 008°39'510.2
2017-Apr-17 16:00N 63°27' E 008°49'510.7
2017-Apr-17 15:30N 63°29' E 009°00'510.5
2017-Apr-17 15:00N 63°32' E 009°11'1010.4
2017-Apr-17 14:00N 63°38' E 009°29'510.0
2017-Apr-17 13:30N 63°43' E 009°32'510.4
2017-Apr-17 13:00N 63°48' E 009°34'510.1
2017-Apr-17 12:30N 63°52' E 009°42'5 9.8
2017-Apr-17 12:00N 63°56' E 009°48'510.2
2017-Apr-17 11:30N 63°60' E 009°56'5 9.5
2017-Apr-17 11:00N 64°03' E 010°03'4 8.2
2017-Apr-17 10:29N 64°07' E 010°03'5 9.7
2017-Apr-17 10:00N 64°11' E 010°09'510.0
2017-Apr-17 09:30N 64°15' E 010°18'5 9.0
2017-Apr-17 09:00N 64°19' E 010°23'4 8.9
2017-Apr-17 08:30N 64°23' E 010°27'5 9.2
2017-Apr-17 08:00N 64°27' E 010°28'5 9.8
2017-Apr-17 07:30N 64°31' E 010°35'5 9.9
2017-Apr-17 07:00N 64°35' E 010°40'510.1
2017-Apr-17 06:30N 64°40' E 010°47'510.2
2017-Apr-17 05:59N 64°43' E 010°55'5 9.9
2017-Apr-17 05:30N 64°47' E 011°03'510.4
2017-Apr-17 05:00N 64°50' E 011°12'510.3
2017-Apr-17 04:30N 64°54' E 011°21'510.1
2017-Apr-17 04:00N 64°57' E 011°30'510.0
2017-Apr-17 03:30N 65°01' E 011°39'5 9.8
2017-Apr-17 03:00N 65°04' E 011°46'5 9.9
2017-Apr-17 02:30N 65°09' E 011°50'5 9.6
2017-Apr-17 02:00N 65°13' E 011°54'5 9.8
2017-Apr-17 01:30N 65°18' E 011°59'4 8.3
2017-Apr-17 01:00N 65°22' E 012°01'5 9.1
2017-Apr-17 00:30N 65°26' E 011°56'5 9.6
2017-Apr-17 00:00N 65°31' E 011°60'5 9.9
2017-Apr-16 23:30N 65°34' E 012°07'5 9.6
2017-Apr-16 23:00N 65°39' E 012°12'5 9.8
2017-Apr-16 22:29N 65°43' E 012°16'510.5
2017-Apr-16 22:00N 65°48' E 012°20'5 9.8
2017-Apr-16 21:30N 65°53' E 012°22'  

Dump ship's entire track history